createdAt,value
2023-10-15T00:00:25.658Z,1.00
2023-10-15T00:02:53.779Z,1.00
2023-10-15T00:05:22.267Z,1.00
2023-10-15T00:07:50.860Z,1.00
2023-10-15T00:10:20.324Z,1.00
2023-10-15T00:12:49.893Z,1.00
2023-10-15T00:15:20.237Z,1.00
2023-10-15T00:17:48.515Z,1.00
2023-10-15T00:20:19.322Z,1.00
2023-10-15T00:22:47.026Z,1.00
2023-10-15T00:25:15.535Z,1.00
2023-10-15T00:27:43.811Z,1.00
2023-10-15T00:30:14.288Z,1.70
2023-10-15T00:32:44.358Z,1.00
2023-10-15T00:35:12.192Z,5.80
2023-10-15T00:37:56.165Z,7.10
2023-10-15T00:40:24.974Z,4.50
2023-10-15T00:42:52.879Z,18.30
2023-10-15T00:45:20.669Z,30.50
2023-10-15T00:47:53.294Z,27.60
2023-10-15T00:50:22.035Z,38.70
2023-10-15T00:52:50.358Z,62.00
2023-10-15T00:55:23.991Z,79.70
2023-10-15T00:57:57.185Z,90.70
2023-10-15T01:00:42.420Z,98.20
2023-10-15T01:03:10.972Z,99.90
2023-10-15T01:05:48.039Z,99.90
2023-10-15T01:08:17.859Z,99.90
2023-10-15T01:10:44.965Z,99.90
2023-10-15T01:13:17.353Z,99.90
2023-10-15T01:15:44.768Z,99.90
2023-10-15T01:18:12.274Z,99.90
2023-10-15T01:20:45.422Z,99.90
2023-10-15T01:23:32.867Z,99.90
2023-10-15T01:26:00.953Z,99.90
2023-10-15T01:28:38.044Z,99.90
2023-10-15T01:31:07.216Z,99.90
2023-10-15T01:33:47.416Z,99.90
2023-10-15T01:36:27.965Z,99.90
2023-10-15T01:38:59.827Z,99.90
2023-10-15T01:41:26.542Z,99.90
2023-10-15T01:43:54.890Z,99.90
2023-10-15T01:46:44.883Z,99.90
2023-10-15T01:49:17.246Z,99.90
2023-10-15T01:51:45.992Z,99.90
2023-10-15T01:54:17.736Z,99.90
2023-10-15T01:56:45.898Z,99.90
2023-10-15T01:59:13.019Z,99.90
2023-10-15T02:01:42.530Z,99.90
2023-10-15T02:04:38.345Z,99.90
2023-10-15T02:07:05.063Z,99.90
2023-10-15T02:09:39.370Z,99.90
2023-10-15T02:12:08.589Z,99.90
2023-10-15T02:14:35.780Z,99.90
2023-10-15T02:17:06.437Z,99.90
2023-10-15T02:19:36.302Z,99.90
2023-10-15T02:22:06.124Z,99.90
2023-10-15T02:24:34.390Z,99.90
2023-10-15T02:27:06.192Z,99.90
2023-10-15T02:29:33.574Z,99.90
2023-10-15T02:32:09.299Z,99.90
2023-10-15T02:34:42.030Z,99.90
2023-10-15T02:37:19.629Z,99.90
2023-10-15T02:39:51.313Z,99.90
2023-10-15T02:42:22.242Z,99.90
2023-10-15T02:44:52.150Z,99.90
2023-10-15T02:47:29.802Z,1.00
2023-10-15T02:50:05.487Z,99.90
2023-10-15T02:52:48.537Z,99.90
2023-10-15T02:55:17.884Z,1.00
2023-10-15T02:57:45.673Z,1.00
2023-10-15T03:00:20.078Z,1.00
2023-10-15T03:02:47.812Z,1.00
2023-10-15T03:05:16.837Z,1.00
2023-10-15T03:07:44.680Z,1.00
2023-10-15T03:10:14.844Z,1.00
2023-10-15T03:12:44.377Z,1.00
2023-10-15T03:15:21.870Z,1.00
2023-10-15T03:17:48.548Z,1.00
2023-10-15T03:20:18.434Z,1.00
2023-10-15T03:22:46.282Z,1.00
2023-10-15T03:25:16.908Z,1.00
2023-10-15T03:27:48.004Z,1.00
2023-10-15T03:30:15.780Z,1.00
2023-10-15T03:32:45.733Z,1.00
2023-10-15T03:35:20.056Z,1.00
2023-10-15T03:37:47.182Z,1.00
2023-10-15T03:40:39.773Z,1.00
2023-10-15T03:43:16.494Z,1.00
2023-10-15T03:45:53.013Z,1.00
2023-10-15T03:48:22.975Z,1.00
2023-10-15T03:50:56.311Z,1.00
2023-10-15T03:53:29.479Z,1.00
2023-10-15T03:56:02.183Z,1.00
2023-10-15T03:58:29.629Z,1.00
2023-10-15T04:01:15.296Z,1.00
2023-10-15T04:03:45.078Z,1.00
2023-10-15T04:06:14.470Z,1.00
2023-10-15T04:09:00.454Z,1.00
2023-10-15T04:11:32.404Z,1.00
2023-10-15T04:14:05.340Z,1.00
2023-10-15T04:16:32.848Z,1.00
2023-10-15T04:19:01.796Z,1.00
2023-10-15T04:21:28.936Z,1.00
2023-10-15T04:23:58.111Z,1.00
2023-10-15T04:26:30.088Z,1.00
2023-10-15T04:28:56.952Z,99.90
2023-10-15T04:31:24.045Z,99.90
2023-10-15T04:33:56.019Z,99.90
2023-10-15T04:36:23.346Z,99.90
2023-10-15T04:39:09.622Z,99.90
2023-10-15T04:41:36.375Z,99.90
2023-10-15T04:44:04.824Z,99.90
2023-10-15T04:46:42.043Z,99.90
2023-10-15T04:49:09.749Z,99.90
2023-10-15T04:51:45.294Z,99.90
2023-10-15T04:54:12.127Z,99.90
2023-10-15T04:56:39.160Z,99.90
2023-10-15T04:59:06.526Z,99.90
2023-10-15T05:01:36.785Z,99.90
2023-10-15T05:04:03.686Z,99.90
2023-10-15T05:06:30.516Z,99.90
2023-10-15T05:08:57.277Z,99.90
2023-10-15T05:11:24.334Z,99.90
2023-10-15T05:13:52.171Z,99.90
2023-10-15T05:16:20.187Z,99.90
2023-10-15T05:18:48.602Z,99.90
2023-10-15T05:21:15.503Z,99.90
2023-10-15T05:23:42.312Z,99.90
2023-10-15T05:26:09.049Z,99.90
2023-10-15T05:28:35.785Z,99.90
2023-10-15T05:31:02.999Z,99.90
2023-10-15T05:33:29.993Z,99.90
2023-10-15T05:35:58.247Z,99.90
2023-10-15T05:38:27.269Z,99.90
2023-10-15T05:41:00.926Z,99.90
2023-10-15T05:43:28.034Z,99.90
2023-10-15T05:45:55.066Z,99.90
2023-10-15T05:48:21.976Z,99.90
2023-10-15T05:50:52.575Z,99.90
2023-10-15T05:53:19.379Z,99.90
2023-10-15T05:55:46.924Z,99.90
2023-10-15T05:58:14.142Z,99.90
2023-10-15T06:00:41.057Z,99.90
2023-10-15T06:03:12.136Z,99.90
2023-10-15T06:05:39.001Z,99.90
2023-10-15T06:08:07.670Z,99.90
2023-10-15T06:10:34.741Z,99.90
2023-10-15T06:13:05.853Z,99.90
2023-10-15T06:15:32.635Z,99.90
2023-10-15T06:18:00.156Z,99.90
2023-10-15T06:20:27.278Z,99.90
2023-10-15T06:22:57.046Z,99.90
2023-10-15T06:25:25.919Z,99.90
2023-10-15T06:27:53.024Z,99.90
2023-10-15T06:30:24.296Z,99.90
2023-10-15T06:32:53.985Z,99.90
2023-10-15T06:35:23.373Z,99.90
2023-10-15T06:37:51.680Z,99.90
2023-10-15T06:40:23.775Z,99.90
2023-10-15T06:43:01.734Z,99.90
2023-10-15T06:45:30.640Z,99.90
2023-10-15T06:47:57.752Z,99.90
2023-10-15T06:50:26.877Z,99.90
2023-10-15T06:52:55.524Z,99.90
2023-10-15T06:55:22.941Z,99.90
2023-10-15T06:57:51.023Z,99.90
2023-10-15T07:00:29.059Z,99.90
2023-10-15T07:02:57.194Z,99.90
2023-10-15T07:05:26.799Z,99.90
2023-10-15T07:07:54.934Z,99.90
2023-10-15T07:10:22.891Z,96.00
2023-10-15T07:12:53.031Z,78.60
2023-10-15T07:15:23.578Z,72.00
2023-10-15T07:17:51.228Z,59.10
2023-10-15T07:20:28.738Z,42.90
2023-10-15T07:22:58.287Z,34.70
2023-10-15T07:25:26.242Z,24.60
2023-10-15T07:27:55.397Z,20.90
2023-10-15T07:30:22.211Z,15.10
2023-10-15T07:32:55.165Z,1.10
2023-10-15T07:35:23.244Z,1.50
2023-10-15T07:37:52.880Z,1.00
2023-10-15T07:40:24.470Z,1.00
2023-10-15T07:42:53.876Z,1.00
2023-10-15T07:45:28.275Z,1.00
2023-10-15T07:47:57.277Z,1.00
2023-10-15T07:50:27.406Z,1.00
2023-10-15T07:52:55.347Z,1.00
2023-10-15T07:55:25.701Z,1.00
2023-10-15T07:57:53.427Z,1.00
2023-10-15T08:03:15.726Z,1.00
2023-10-15T08:05:44.023Z,1.00
2023-10-15T08:08:10.970Z,1.00
2023-10-15T08:10:38.664Z,1.00
2023-10-15T08:13:07.924Z,1.00
2023-10-15T08:15:35.359Z,1.00
2023-10-15T08:18:03.904Z,1.00
2023-10-15T08:20:32.811Z,1.00
2023-10-15T08:22:59.797Z,1.00
2023-10-15T08:25:27.672Z,1.00
2023-10-15T08:27:54.639Z,1.00
2023-10-15T08:30:23.237Z,1.00
2023-10-15T08:32:50.277Z,1.00
2023-10-15T08:35:17.948Z,1.00
2023-10-15T08:37:46.261Z,1.00
2023-10-15T08:40:18.384Z,1.00
2023-10-15T08:43:00.312Z,1.00
2023-10-15T08:45:27.594Z,1.00
2023-10-15T08:47:55.141Z,1.00
2023-10-15T08:50:23.511Z,1.00
2023-10-15T08:52:54.245Z,1.00
2023-10-15T08:55:25.235Z,1.00
2023-10-15T08:57:56.147Z,1.00
2023-10-15T09:02:58.836Z,1.00
2023-10-15T09:05:26.233Z,1.00
2023-10-15T09:07:56.056Z,1.00
2023-10-15T09:10:23.328Z,1.00
2023-10-15T09:12:50.755Z,1.00
2023-10-15T09:15:18.435Z,1.00
2023-10-15T09:17:56.927Z,1.00
2023-10-15T09:20:27.936Z,1.00
2023-10-15T09:23:03.290Z,1.00
2023-10-15T09:25:31.180Z,1.00
2023-10-15T09:27:59.510Z,1.00
2023-10-15T09:30:28.079Z,1.00
2023-10-15T09:32:56.525Z,1.00
2023-10-15T09:35:23.850Z,1.00
2023-10-15T09:37:51.330Z,1.00
2023-10-15T09:40:33.972Z,1.00
2023-10-15T09:43:01.490Z,1.00
2023-10-15T09:45:32.261Z,1.00
2023-10-15T09:47:59.498Z,1.00
2023-10-15T09:50:29.143Z,1.00
2023-10-15T09:52:58.076Z,1.00
2023-10-15T09:55:28.043Z,1.00
2023-10-15T09:57:59.779Z,1.00
2023-10-15T10:00:47.455Z,1.00
2023-10-15T10:03:31.685Z,1.00
2023-10-15T10:06:19.222Z,1.00
2023-10-15T10:09:17.643Z,1.00
2023-10-15T10:12:24.226Z,1.00
2023-10-15T10:15:24.459Z,1.00
2023-10-15T10:17:52.508Z,1.00
2023-10-15T10:20:21.035Z,1.00
2023-10-15T10:23:03.949Z,1.00
2023-10-15T10:25:43.690Z,1.00
2023-10-15T10:28:19.691Z,1.00
2023-10-15T10:30:57.427Z,1.00
2023-10-15T10:33:41.682Z,1.00
2023-10-15T10:36:12.819Z,1.00
2023-10-15T10:38:44.144Z,1.00
2023-10-15T10:43:48.182Z,1.00
2023-10-15T10:46:23.049Z,1.00
2023-10-15T10:49:08.783Z,1.00
2023-10-15T10:51:35.511Z,1.00
2023-10-15T10:54:03.897Z,1.00
2023-10-15T10:56:40.001Z,1.00
2023-10-15T10:59:15.355Z,1.00
2023-10-15T11:01:48.559Z,1.00
2023-10-15T11:04:17.306Z,1.00
2023-10-15T11:06:47.918Z,1.00
2023-10-15T11:09:17.573Z,1.00
2023-10-15T11:11:48.464Z,1.00
2023-10-15T11:14:22.533Z,1.00
2023-10-15T11:16:49.709Z,1.00
2023-10-15T11:19:18.865Z,1.00
2023-10-15T11:21:47.043Z,1.00
2023-10-15T11:24:17.477Z,1.00
2023-10-15T11:26:45.976Z,1.00
2023-10-15T11:29:19.863Z,1.00
2023-10-15T11:31:49.638Z,1.00
2023-10-15T11:34:18.465Z,1.00
2023-10-15T11:36:49.568Z,1.00
2023-10-15T11:39:26.463Z,1.00
2023-10-15T11:41:57.380Z,1.00
2023-10-15T11:44:32.163Z,1.00
2023-10-15T11:47:10.205Z,1.00
2023-10-15T11:49:44.513Z,1.00
2023-10-15T11:52:23.581Z,1.00
2023-10-15T11:54:53.542Z,1.00
2023-10-15T11:57:24.074Z,1.00
2023-10-15T11:59:55.666Z,1.00
2023-10-15T12:02:25.599Z,1.00
2023-10-15T12:04:53.653Z,1.00
2023-10-15T12:07:23.019Z,1.00
2023-10-15T12:09:53.564Z,1.00
2023-10-15T12:12:20.487Z,1.00
2023-10-15T12:14:47.415Z,1.00
2023-10-15T12:17:17.747Z,1.00
2023-10-15T12:19:52.708Z,1.00
2023-10-15T12:22:27.312Z,1.00
2023-10-15T12:24:56.945Z,1.00
2023-10-15T12:27:23.883Z,1.00
2023-10-15T12:29:51.571Z,1.00
2023-10-15T12:32:44.870Z,1.00
2023-10-15T12:35:17.908Z,1.00
2023-10-15T12:37:45.451Z,1.00
2023-10-15T12:40:23.215Z,1.00
2023-10-15T12:42:53.222Z,1.00
2023-10-15T12:45:20.724Z,1.00
2023-10-15T12:47:49.252Z,1.00
2023-10-15T12:50:16.679Z,1.00
2023-10-15T12:52:48.881Z,1.00
2023-10-15T12:55:16.780Z,1.00
2023-10-15T12:57:43.512Z,1.00
2023-10-15T13:00:18.572Z,1.00
2023-10-15T13:02:46.805Z,1.00
2023-10-15T13:05:17.203Z,1.00
2023-10-15T13:07:44.396Z,1.00
2023-10-15T13:10:11.595Z,1.00
2023-10-15T13:12:38.771Z,1.00
2023-10-15T13:15:11.300Z,1.00
2023-10-15T13:17:41.303Z,1.00
2023-10-15T13:20:11.821Z,1.00
2023-10-15T13:22:43.436Z,1.00
2023-10-15T13:25:12.751Z,1.00
2023-10-15T13:27:39.954Z,1.00
2023-10-15T13:30:08.547Z,1.00
2023-10-15T13:32:35.640Z,1.00
2023-10-15T13:35:02.516Z,1.00
2023-10-15T13:37:29.435Z,1.00
2023-10-15T13:39:57.576Z,1.00
2023-10-15T13:42:25.161Z,1.00
2023-10-15T13:44:52.181Z,1.00
2023-10-15T13:47:19.431Z,1.00
2023-10-15T13:49:46.476Z,1.00
2023-10-15T13:52:14.155Z,1.00
2023-10-15T13:54:41.080Z,1.00
2023-10-15T13:57:10.084Z,1.00
2023-10-15T13:59:38.524Z,1.00
2023-10-15T14:02:08.617Z,1.00
2023-10-15T14:04:35.780Z,1.00
2023-10-15T14:07:02.639Z,1.00
2023-10-15T14:09:35.035Z,1.00
2023-10-15T14:12:02.554Z,1.00
2023-10-15T14:14:29.501Z,1.00
2023-10-15T14:16:56.339Z,1.00
2023-10-15T14:19:23.289Z,1.00
2023-10-15T14:21:50.243Z,1.00
2023-10-15T14:24:16.936Z,1.00
2023-10-15T14:26:43.836Z,1.00
2023-10-15T14:29:10.686Z,1.00
2023-10-15T14:31:37.625Z,1.00
2023-10-15T14:34:06.439Z,1.00
2023-10-15T14:36:37.832Z,1.00
2023-10-15T14:39:05.089Z,1.00
2023-10-15T14:41:32.088Z,1.00
2023-10-15T14:43:59.188Z,32.90
2023-10-15T14:46:26.827Z,18.30
2023-10-15T14:48:54.120Z,3.50
2023-10-15T14:51:22.769Z,1.00
2023-10-15T14:53:50.025Z,2.00
2023-10-15T14:56:16.776Z,1.00
2023-10-15T14:58:43.685Z,1.00
2023-10-15T15:01:10.846Z,1.00
2023-10-15T15:03:37.954Z,1.00
2023-10-15T15:06:10.542Z,1.00
2023-10-15T15:08:40.832Z,1.00
2023-10-15T15:11:08.276Z,1.00
2023-10-15T15:13:35.215Z,1.00
2023-10-15T15:16:03.699Z,1.00
2023-10-15T15:18:31.352Z,1.00
2023-10-15T15:21:07.229Z,1.00
2023-10-15T15:23:35.312Z,1.00
2023-10-15T15:26:06.457Z,1.00
2023-10-15T15:28:34.407Z,1.00
2023-10-15T15:31:01.889Z,1.00
2023-10-15T15:33:28.823Z,1.00
2023-10-15T15:35:56.775Z,1.00
2023-10-15T15:38:23.637Z,1.00
2023-10-15T15:41:05.394Z,1.00
2023-10-15T15:43:32.679Z,1.00
2023-10-15T15:45:59.460Z,1.00
2023-10-15T15:48:27.275Z,1.00
2023-10-15T15:50:55.416Z,1.00
2023-10-15T15:53:22.120Z,1.00
2023-10-15T15:55:50.101Z,1.00
2023-10-15T15:58:16.999Z,1.00
2023-10-15T16:00:44.740Z,1.00
2023-10-15T16:03:12.681Z,1.00
2023-10-15T16:05:39.712Z,1.00
2023-10-15T16:08:07.655Z,1.00
2023-10-15T16:10:34.523Z,1.00
2023-10-15T16:13:01.360Z,1.00
2023-10-15T16:15:28.524Z,1.00
2023-10-15T16:17:55.688Z,1.00
2023-10-15T16:20:23.157Z,2.00
2023-10-15T16:22:50.761Z,17.10
2023-10-15T16:25:20.943Z,43.80
2023-10-15T16:27:47.710Z,99.90
2023-10-15T16:30:14.664Z,99.90
2023-10-15T16:32:42.047Z,99.90
2023-10-15T16:35:09.774Z,99.90
2023-10-15T16:37:37.150Z,99.90
2023-10-15T16:40:04.243Z,99.90
2023-10-15T16:42:31.364Z,99.90
2023-10-15T16:44:58.707Z,99.90
2023-10-15T16:47:25.459Z,99.90
2023-10-15T16:49:52.633Z,99.90
2023-10-15T16:52:19.632Z,99.90
2023-10-15T16:54:47.563Z,99.90
2023-10-15T16:57:14.350Z,99.90
2023-10-15T16:59:42.909Z,99.90
2023-10-15T17:02:09.781Z,99.90
2023-10-15T17:04:36.850Z,99.90
2023-10-15T17:07:03.691Z,99.90
2023-10-15T17:09:31.491Z,99.90
2023-10-15T17:11:58.462Z,99.90
2023-10-15T17:14:25.507Z,99.90
2023-10-15T17:16:53.414Z,99.90
2023-10-15T17:19:21.569Z,99.90
2023-10-15T17:21:48.951Z,99.90
2023-10-15T17:24:15.922Z,99.90
2023-10-15T17:26:42.790Z,99.90
2023-10-15T17:29:10.316Z,99.90
2023-10-15T17:31:37.457Z,99.90
2023-10-15T17:34:04.247Z,99.90
2023-10-15T17:36:35.873Z,1.00
2023-10-15T17:39:18.418Z,1.00
2023-10-15T17:41:46.387Z,1.00
2023-10-15T17:44:15.478Z,1.00
2023-10-15T17:46:42.723Z,1.00
2023-10-15T17:49:10.255Z,1.00
2023-10-15T17:51:37.799Z,1.00
2023-10-15T17:54:05.405Z,1.00
2023-10-15T17:56:32.713Z,1.00
2023-10-15T17:59:00.095Z,1.00
2023-10-15T18:01:27.124Z,1.00
2023-10-15T18:03:55.235Z,1.00
2023-10-15T18:06:23.790Z,1.00
2023-10-15T18:08:50.698Z,1.00
2023-10-15T18:11:17.955Z,1.00
2023-10-15T18:13:45.347Z,1.00
2023-10-15T18:16:12.498Z,1.00
2023-10-15T18:18:39.735Z,1.00
2023-10-15T18:21:07.043Z,1.00
2023-10-15T18:23:34.292Z,1.00
2023-10-15T18:26:01.248Z,1.00
2023-10-15T18:28:28.023Z,1.00
2023-10-15T18:30:55.814Z,1.00
2023-10-15T18:33:27.142Z,1.00
2023-10-15T18:35:54.679Z,1.00
2023-10-15T18:38:22.952Z,1.00
2023-10-15T18:40:49.846Z,1.00
2023-10-15T18:43:18.854Z,1.00
2023-10-15T18:45:49.755Z,1.00
2023-10-15T18:48:16.863Z,5.70
2023-10-15T18:50:45.634Z,38.60
2023-10-15T18:53:12.896Z,60.40
2023-10-15T18:55:40.986Z,90.80
2023-10-15T18:58:08.388Z,41.40
2023-10-15T19:00:35.932Z,99.90
2023-10-15T19:03:04.602Z,99.90
2023-10-15T19:05:31.972Z,99.90
2023-10-15T19:07:58.951Z,99.90
2023-10-15T19:10:26.088Z,99.90
2023-10-15T19:12:56.063Z,99.90
2023-10-15T19:15:23.061Z,99.90
2023-10-15T19:17:49.985Z,99.90
2023-10-15T19:20:20.767Z,99.90
2023-10-15T19:22:53.103Z,99.90
2023-10-15T19:25:19.866Z,86.30
2023-10-15T19:27:46.839Z,91.10
2023-10-15T19:30:15.559Z,92.60
2023-10-15T19:32:43.431Z,61.50
2023-10-15T19:35:12.991Z,1.00
2023-10-15T19:37:41.760Z,1.00
2023-10-15T19:40:13.524Z,1.00
2023-10-15T19:42:41.343Z,1.00
2023-10-15T19:45:09.302Z,1.00
2023-10-15T19:47:36.688Z,1.00
2023-10-15T19:50:03.820Z,1.00
2023-10-15T19:55:13.469Z,1.00
2023-10-15T19:57:40.184Z,1.00
2023-10-15T20:00:19.754Z,1.00
2023-10-15T20:02:48.391Z,1.00
2023-10-15T20:05:15.873Z,1.00
2023-10-15T20:07:42.993Z,1.00
2023-10-15T20:10:11.270Z,1.00
2023-10-15T20:12:39.030Z,1.00
2023-10-15T20:15:08.184Z,1.00
2023-10-15T20:17:35.046Z,1.00
2023-10-15T20:20:09.551Z,1.00
2023-10-15T20:22:37.019Z,1.00
2023-10-15T20:25:09.106Z,1.00
2023-10-15T20:27:43.693Z,1.00
2023-10-15T20:30:14.034Z,1.00
2023-10-15T20:32:54.159Z,1.00
2023-10-15T20:35:23.700Z,1.00
2023-10-15T20:37:52.721Z,1.00
2023-10-15T20:40:22.390Z,1.00
2023-10-15T20:42:50.770Z,1.00
2023-10-15T20:45:20.725Z,1.00
2023-10-15T20:47:50.253Z,1.00
2023-10-15T20:50:20.010Z,1.00
2023-10-15T20:52:48.504Z,1.00
2023-10-15T20:55:16.522Z,1.00
2023-10-15T20:57:44.379Z,1.00
2023-10-15T21:00:13.711Z,1.00
2023-10-15T21:02:47.361Z,1.00
2023-10-15T21:05:15.845Z,1.00
2023-10-15T21:07:45.449Z,1.00
2023-10-15T21:10:14.732Z,33.20
2023-10-15T21:12:42.673Z,99.90
2023-10-15T21:15:10.974Z,94.60
2023-10-15T21:17:39.541Z,99.90
2023-10-15T21:20:13.429Z,99.90
2023-10-15T21:22:41.570Z,99.90
2023-10-15T21:25:16.722Z,99.90
2023-10-15T21:27:43.929Z,99.90
2023-10-15T21:30:12.969Z,99.90
2023-10-15T21:32:40.950Z,99.90
2023-10-15T21:35:11.595Z,99.90
2023-10-15T21:37:41.268Z,99.90
2023-10-15T21:40:15.918Z,99.90
2023-10-15T21:42:47.847Z,99.90
2023-10-15T21:45:15.053Z,99.90
2023-10-15T21:47:43.367Z,99.90
2023-10-15T21:50:13.519Z,99.90
2023-10-15T21:52:43.062Z,99.90
2023-10-15T21:55:11.812Z,99.90
2023-10-15T21:57:41.339Z,99.90
2023-10-15T22:00:20.659Z,99.90
2023-10-15T22:02:47.786Z,99.90
2023-10-15T22:05:14.612Z,99.90
2023-10-15T22:07:41.370Z,99.90
2023-10-15T22:10:08.882Z,99.90
2023-10-15T22:12:35.716Z,99.90
2023-10-15T22:15:02.601Z,99.90
2023-10-15T22:17:29.316Z,99.90
2023-10-15T22:19:56.114Z,99.90
2023-10-15T22:22:25.627Z,99.90
2023-10-15T22:24:53.294Z,99.90
2023-10-15T22:27:21.289Z,99.90
2023-10-15T22:29:52.844Z,99.90
2023-10-15T22:32:19.837Z,99.90
2023-10-15T22:34:47.156Z,99.90
2023-10-15T22:37:14.019Z,99.90
2023-10-15T22:39:41.054Z,99.90
2023-10-15T22:42:08.911Z,99.90
2023-10-15T22:44:36.551Z,99.90
2023-10-15T22:47:06.828Z,99.90
2023-10-15T22:49:36.492Z,99.90
2023-10-15T22:52:03.899Z,99.90
2023-10-15T22:54:32.820Z,99.90
2023-10-15T22:56:59.776Z,99.90
2023-10-15T22:59:26.949Z,99.90
2023-10-15T23:01:54.158Z,99.90
2023-10-15T23:04:21.115Z,99.90
2023-10-15T23:06:48.157Z,99.90
2023-10-15T23:09:15.047Z,99.90
2023-10-15T23:11:42.249Z,99.90
2023-10-15T23:14:09.132Z,99.90
2023-10-15T23:16:35.987Z,99.90
2023-10-15T23:19:05.651Z,99.90
2023-10-15T23:21:47.047Z,99.90
2023-10-15T23:24:15.151Z,99.90
2023-10-15T23:26:43.424Z,99.90
2023-10-15T23:29:10.319Z,99.90
2023-10-15T23:31:40.854Z,99.90
2023-10-15T23:34:10.200Z,99.90
2023-10-15T23:36:37.677Z,99.90
2023-10-15T23:39:07.548Z,99.90
2023-10-15T23:41:36.187Z,99.90
2023-10-15T23:44:03.570Z,99.90
2023-10-15T23:46:32.573Z,99.90
2023-10-15T23:49:01.078Z,99.90
2023-10-15T23:51:29.998Z,99.90
2023-10-15T23:53:57.477Z,99.90
2023-10-15T23:56:24.530Z,99.90
2023-10-15T23:58:57.525Z,99.90
